createdAt,value
2022-09-28T00:02:17.938Z,80.29
2022-09-28T00:04:50.413Z,80.66
2022-09-28T00:07:23.484Z,80.96
2022-09-28T00:09:56.027Z,80.74
2022-09-28T00:12:30.008Z,80.83
2022-09-28T00:15:04.384Z,80.72
2022-09-28T00:17:36.950Z,80.87
2022-09-28T00:20:10.641Z,80.62
2022-09-28T00:22:43.042Z,80.42
2022-09-28T00:25:17.077Z,80.49
2022-09-28T00:27:50.574Z,80.73
2022-09-28T00:30:24.574Z,80.49
2022-09-28T00:32:56.901Z,80.61
2022-09-28T00:35:29.489Z,80.55
2022-09-28T00:38:02.560Z,80.65
2022-09-28T00:40:35.586Z,80.78
2022-09-28T00:43:18.902Z,80.79
2022-09-28T00:45:58.938Z,80.65
2022-09-28T00:48:34.357Z,80.77
2022-09-28T00:51:10.818Z,80.69
2022-09-28T00:53:44.738Z,80.38
2022-09-28T00:56:20.544Z,80.69
2022-09-28T00:58:55.013Z,80.64
2022-09-28T01:01:29.790Z,80.76
2022-09-28T01:04:04.310Z,80.84
2022-09-28T01:06:39.213Z,80.33
2022-09-28T01:09:14.400Z,80.69
2022-09-28T01:11:47.117Z,80.55
2022-09-28T01:14:20.944Z,80.92
2022-09-28T01:17:04.722Z,80.76
2022-09-28T01:20:12.507Z,80.87
2022-09-28T01:23:30.583Z,80.27
2022-09-28T01:26:39.971Z,80.38
2022-09-28T01:29:19.583Z,80.61
2022-09-28T01:32:13.688Z,80.53
2022-09-28T01:34:56.375Z,80.62
2022-09-28T01:37:36.580Z,80.63
2022-09-28T01:40:10.686Z,80.49
2022-09-28T01:42:47.589Z,80.83
2022-09-28T01:45:26.467Z,81.29
2022-09-28T01:48:02.523Z,81.14
2022-09-28T01:50:38.753Z,80.66
2022-09-28T01:53:16.106Z,80.90
2022-09-28T01:55:54.407Z,80.96
2022-09-28T01:58:36.001Z,80.70
2022-09-28T02:01:12.226Z,80.39
2022-09-28T02:03:52.515Z,80.98
2022-09-28T02:06:32.185Z,80.60
2022-09-28T02:09:10.088Z,80.95
2022-09-28T02:11:53.861Z,80.76
2022-09-28T02:14:30.167Z,80.90
2022-09-28T02:17:03.545Z,81.01
2022-09-28T02:19:38.027Z,80.66
2022-09-28T02:22:23.692Z,80.77
2022-09-28T02:25:03.972Z,80.89
2022-09-28T02:27:43.396Z,80.68
2022-09-28T02:30:19.084Z,80.81
2022-09-28T02:32:57.027Z,80.40
2022-09-28T02:35:30.025Z,80.90
2022-09-28T02:38:03.374Z,80.67
2022-09-28T02:40:38.116Z,80.83
2022-09-28T02:43:17.827Z,80.84
2022-09-28T02:46:06.531Z,80.41
2022-09-28T02:49:17.301Z,80.99
2022-09-28T02:52:08.424Z,80.72
2022-09-28T02:54:59.459Z,80.50
2022-09-28T02:57:51.736Z,80.99
2022-09-28T03:00:24.875Z,80.72
2022-09-28T03:03:09.110Z,80.49
2022-09-28T03:05:47.274Z,80.68
2022-09-28T03:08:25.319Z,80.94
2022-09-28T03:11:02.818Z,80.64
2022-09-28T03:13:36.763Z,80.54
2022-09-28T03:16:11.428Z,81.29
2022-09-28T03:18:46.453Z,80.83
2022-09-28T03:21:19.315Z,80.74
2022-09-28T03:23:52.007Z,80.53
2022-09-28T03:26:24.336Z,80.85
2022-09-28T03:28:56.896Z,80.83
2022-09-28T03:31:30.852Z,81.28
2022-09-28T03:34:05.127Z,80.86
2022-09-28T03:36:38.149Z,80.92
2022-09-28T03:39:10.857Z,80.78
2022-09-28T03:41:44.255Z,81.06
2022-09-28T03:44:16.700Z,80.69
2022-09-28T03:46:49.978Z,81.20
2022-09-28T03:49:24.180Z,81.06
2022-09-28T03:52:02.769Z,80.99
2022-09-28T03:54:36.105Z,80.66
2022-09-28T03:57:08.800Z,80.89
2022-09-28T03:59:41.571Z,80.83
2022-09-28T04:02:14.293Z,80.83
2022-09-28T04:04:49.806Z,80.64
2022-09-28T04:07:22.321Z,80.95
2022-09-28T04:09:54.853Z,80.63
2022-09-28T04:12:27.448Z,80.78
2022-09-28T04:15:01.168Z,80.65
2022-09-28T04:17:39.164Z,81.05
2022-09-28T04:20:18.668Z,81.00
2022-09-28T04:23:04.907Z,80.81
2022-09-28T04:25:37.388Z,80.86
2022-09-28T04:28:28.464Z,80.81
2022-09-28T04:31:01.691Z,80.82
2022-09-28T04:33:34.495Z,80.89
2022-09-28T04:36:09.673Z,80.61
2022-09-28T04:38:52.892Z,80.69
2022-09-28T04:41:28.267Z,80.68
2022-09-28T04:44:04.053Z,80.65
2022-09-28T04:46:37.001Z,80.58
2022-09-28T04:49:28.095Z,80.81
2022-09-28T04:52:22.498Z,80.87
2022-09-28T04:54:54.913Z,80.74
2022-09-28T04:57:29.553Z,80.77
2022-09-28T05:00:02.204Z,80.85
2022-09-28T05:02:37.038Z,80.64
2022-09-28T05:05:27.851Z,80.85
2022-09-28T05:08:26.558Z,80.61
2022-09-28T05:11:00.017Z,81.01
2022-09-28T05:13:35.961Z,80.59
2022-09-28T05:16:09.404Z,80.21
2022-09-28T05:18:56.976Z,80.77
2022-09-28T05:21:30.117Z,80.71
2022-09-28T05:24:07.847Z,80.58
2022-09-28T05:26:43.270Z,80.64
2022-09-28T05:29:16.608Z,80.50
2022-09-28T05:32:11.963Z,80.81
2022-09-28T05:35:11.279Z,80.59
2022-09-28T05:37:47.593Z,80.79
2022-09-28T05:40:21.864Z,80.73
2022-09-28T05:42:59.174Z,80.81
2022-09-28T05:45:31.861Z,80.87
2022-09-28T05:48:04.896Z,80.38
2022-09-28T05:50:37.316Z,80.54
2022-09-28T05:53:10.666Z,80.87
2022-09-28T05:55:45.030Z,80.96
2022-09-28T05:58:17.653Z,80.60
2022-09-28T06:00:55.208Z,80.89
2022-09-28T06:03:28.832Z,80.53
2022-09-28T06:06:02.829Z,80.31
2022-09-28T06:08:36.657Z,80.84
2022-09-28T06:11:32.135Z,80.83
2022-09-28T06:14:13.918Z,81.14
2022-09-28T06:16:47.944Z,80.92
2022-09-28T06:19:20.822Z,80.84
2022-09-28T06:22:12.096Z,80.73
2022-09-28T06:24:51.412Z,80.70
2022-09-28T06:27:25.375Z,80.63
2022-09-28T06:29:57.864Z,80.89
2022-09-28T06:32:30.509Z,80.87
2022-09-28T06:35:03.128Z,81.05
2022-09-28T06:37:36.391Z,80.84
2022-09-28T06:40:10.989Z,80.97
2022-09-28T06:42:45.568Z,80.73
2022-09-28T06:45:37.063Z,80.65
2022-09-28T06:48:35.957Z,80.81
2022-09-28T06:51:08.533Z,80.91
2022-09-28T06:54:02.114Z,80.89
2022-09-28T06:56:54.757Z,81.14
2022-09-28T06:59:30.121Z,80.96
2022-09-28T07:02:04.384Z,81.04
2022-09-28T07:05:03.324Z,81.05
2022-09-28T07:07:56.415Z,81.07
2022-09-28T07:11:08.216Z,81.03
2022-09-28T07:13:51.359Z,80.95
2022-09-28T07:16:46.804Z,80.97
2022-09-28T07:19:21.738Z,80.49
2022-09-28T07:22:04.117Z,80.71
2022-09-28T07:24:38.223Z,80.46
2022-09-28T07:27:29.172Z,80.57
2022-09-28T07:30:19.937Z,80.63
2022-09-28T07:33:18.075Z,80.59
2022-09-28T07:35:56.065Z,80.73
2022-09-28T07:38:33.220Z,80.33
2022-09-28T07:41:12.686Z,80.72
2022-09-28T07:43:51.619Z,80.61
2022-09-28T07:46:25.247Z,81.00
2022-09-28T07:49:12.311Z,80.40
2022-09-28T07:52:02.720Z,80.33
2022-09-28T07:54:36.539Z,80.56
2022-09-28T07:57:28.728Z,80.42
2022-09-28T08:00:17.458Z,80.16
2022-09-28T08:02:53.374Z,80.40
2022-09-28T08:05:32.315Z,80.22
2022-09-28T08:08:04.770Z,80.60
2022-09-28T08:10:38.256Z,80.58
2022-09-28T08:13:29.729Z,80.27
2022-09-28T08:16:19.224Z,80.26
2022-09-28T08:19:05.511Z,80.19
2022-09-28T08:21:45.095Z,80.58
2022-09-28T08:24:19.339Z,80.50
2022-09-28T08:26:53.636Z,80.72
2022-09-28T08:29:27.037Z,80.76
2022-09-28T08:32:24.857Z,80.24
2022-09-28T08:35:17.538Z,80.59
2022-09-28T08:38:05.027Z,79.98
2022-09-28T08:41:04.801Z,80.13
2022-09-28T08:44:15.475Z,80.37
2022-09-28T08:47:44.220Z,80.37
2022-09-28T08:50:47.658Z,80.42
2022-09-28T08:53:38.641Z,80.62
2022-09-28T08:56:32.224Z,80.70
2022-09-28T08:59:09.888Z,80.23
2022-09-28T09:01:48.684Z,80.61
2022-09-28T09:04:22.850Z,80.16
2022-09-28T09:07:44.419Z,80.71
2022-09-28T09:10:42.806Z,80.56
2022-09-28T09:13:35.323Z,80.25
2022-09-28T09:16:18.913Z,80.37
2022-09-28T09:19:17.548Z,80.05
2022-09-28T09:22:16.455Z,80.35
2022-09-28T09:24:51.541Z,80.11
2022-09-28T09:27:49.068Z,80.21
2022-09-28T09:30:23.183Z,79.89
2022-09-28T09:33:49.966Z,80.20
2022-09-28T09:36:55.175Z,80.09
2022-09-28T09:40:05.131Z,79.76
2022-09-28T09:43:32.924Z,80.21
2022-09-28T09:46:36.192Z,79.63
2022-09-28T09:49:25.173Z,80.06
2022-09-28T09:52:03.384Z,79.58
2022-09-28T09:54:39.803Z,79.80
2022-09-28T09:57:20.273Z,79.69
2022-09-28T10:00:14.853Z,79.47
2022-09-28T10:02:57.716Z,79.32
2022-09-28T10:05:44.780Z,79.71
2022-09-28T10:08:21.728Z,79.41
2022-09-28T10:11:05.928Z,79.67
2022-09-28T10:13:40.125Z,79.72
2022-09-28T10:16:36.065Z,79.44
2022-09-28T10:19:14.595Z,79.58
2022-09-28T10:22:24.391Z,79.10
2022-09-28T10:25:00.465Z,78.97
2022-09-28T10:27:36.209Z,79.23
2022-09-28T10:30:17.640Z,79.13
2022-09-28T10:32:59.159Z,79.38
2022-09-28T10:35:48.367Z,79.19
2022-09-28T10:38:29.855Z,79.58
2022-09-28T10:41:16.987Z,79.08
2022-09-28T10:44:19.240Z,79.21
2022-09-28T10:47:16.237Z,78.98
2022-09-28T10:49:56.443Z,79.42
2022-09-28T10:52:34.967Z,79.12
2022-09-28T10:55:31.350Z,79.30
2022-09-28T10:58:26.651Z,79.07
2022-09-28T11:01:08.529Z,78.95
2022-09-28T11:03:55.807Z,78.88
2022-09-28T11:06:35.610Z,78.62
2022-09-28T11:09:30.653Z,78.93
2022-09-28T11:12:16.139Z,78.50
2022-09-28T11:14:59.529Z,78.62
2022-09-28T11:17:40.769Z,78.61
2022-09-28T11:20:36.599Z,78.52
2022-09-28T11:23:46.700Z,77.96
2022-09-28T11:26:26.353Z,78.13
2022-09-28T11:29:04.785Z,78.42
2022-09-28T11:31:50.843Z,78.07
2022-09-28T11:34:57.609Z,78.25
2022-09-28T11:37:46.846Z,78.24
2022-09-28T11:40:36.017Z,78.04
2022-09-28T11:43:18.783Z,78.26
2022-09-28T11:46:00.441Z,77.66
2022-09-28T11:48:41.120Z,78.04
2022-09-28T11:51:22.053Z,77.94
2022-09-28T11:53:59.739Z,77.94
2022-09-28T11:56:38.900Z,78.16
2022-09-28T11:59:18.840Z,77.79
2022-09-28T12:01:58.110Z,77.50
2022-09-28T12:04:46.925Z,77.96
2022-09-28T12:07:28.145Z,77.64
2022-09-28T12:10:10.247Z,77.73
2022-09-28T12:12:57.312Z,78.15
2022-09-28T12:16:12.965Z,77.62
2022-09-28T12:18:44.517Z,77.92
2022-09-28T12:21:32.079Z,77.79
2022-09-28T12:24:14.557Z,77.89
2022-09-28T12:26:53.539Z,77.36
2022-09-28T12:29:32.693Z,77.76
2022-09-28T12:32:14.712Z,77.98
2022-09-28T12:34:47.472Z,77.57
2022-09-28T12:37:38.526Z,77.95
2022-09-28T12:40:37.149Z,77.89
2022-09-28T12:43:28.392Z,77.74
2022-09-28T12:46:24.681Z,77.71
2022-09-28T12:50:27.263Z,77.93
2022-09-28T12:52:34.118Z,77.39
2022-09-28T12:55:24.629Z,77.92
2022-09-28T12:58:08.399Z,77.44
2022-09-28T13:00:51.506Z,77.77
2022-09-28T13:03:50.202Z,77.55
2022-09-28T13:06:35.375Z,77.71
2022-09-28T13:09:20.179Z,77.42
2022-09-28T13:12:13.732Z,77.80
2022-09-28T13:15:17.948Z,77.64
2022-09-28T13:18:01.836Z,77.51
2022-09-28T13:21:03.122Z,77.92
2022-09-28T13:23:39.573Z,77.53
2022-09-28T13:26:23.847Z,77.53
2022-09-28T13:29:02.368Z,77.47
2022-09-28T13:31:40.311Z,77.28
2022-09-28T13:34:20.666Z,77.45
2022-09-28T13:37:20.529Z,77.60
2022-09-28T13:39:55.274Z,77.09
2022-09-28T13:42:56.525Z,77.17
2022-09-28T13:46:00.356Z,77.19
2022-09-28T13:48:54.402Z,77.23
2022-09-28T13:51:37.723Z,77.33
2022-09-28T13:54:41.405Z,77.27
2022-09-28T13:57:21.818Z,77.37
2022-09-28T14:00:17.817Z,77.10
2022-09-28T14:02:56.264Z,77.56
2022-09-28T14:06:06.320Z,77.14
2022-09-28T14:08:44.042Z,77.14
2022-09-28T14:11:58.514Z,77.40
2022-09-28T14:14:48.658Z,77.10
2022-09-28T14:17:53.259Z,77.55
2022-09-28T14:20:26.976Z,77.34
2022-09-28T14:23:44.382Z,77.13
2022-09-28T14:26:52.184Z,77.11
2022-09-28T14:29:28.915Z,77.32
2022-09-28T14:32:05.678Z,77.21
2022-09-28T14:34:41.989Z,77.52
2022-09-28T14:37:40.276Z,77.54
2022-09-28T14:40:48.679Z,77.80
2022-09-28T14:43:27.115Z,77.16
2022-09-28T14:46:30.591Z,77.44
2022-09-28T14:49:06.058Z,77.61
2022-09-28T14:52:06.555Z,77.73
2022-09-28T14:54:45.525Z,77.45
2022-09-28T14:57:21.960Z,77.40
2022-09-28T14:59:58.746Z,77.58
2022-09-28T15:02:36.477Z,77.76
2022-09-28T15:05:16.318Z,77.41
2022-09-28T15:07:52.026Z,77.44
2022-09-28T15:10:31.715Z,77.91
2022-09-28T15:13:16.308Z,77.47
2022-09-28T15:15:52.081Z,77.56
2022-09-28T15:19:04.264Z,77.86
2022-09-28T15:21:38.899Z,78.01
2022-09-28T15:24:32.066Z,77.90
2022-09-28T15:27:15.268Z,77.72
2022-09-28T15:29:57.166Z,77.91
2022-09-28T15:32:32.234Z,77.68
2022-09-28T15:35:21.008Z,77.75
2022-09-28T15:37:55.397Z,77.78
2022-09-28T15:40:33.574Z,77.99
2022-09-28T15:43:23.718Z,77.89
2022-09-28T15:46:06.839Z,77.54
2022-09-28T15:48:48.827Z,77.65
2022-09-28T15:51:24.474Z,77.46
2022-09-28T15:54:04.908Z,77.70
2022-09-28T15:56:55.233Z,77.75
2022-09-28T15:59:32.155Z,77.86
2022-09-28T16:02:17.551Z,77.43
2022-09-28T16:04:54.352Z,77.45
2022-09-28T16:07:34.453Z,77.40
2022-09-28T16:10:33.860Z,77.73
2022-09-28T16:13:21.073Z,78.37
2022-09-28T16:15:59.181Z,77.77
2022-09-28T16:18:35.924Z,77.81
2022-09-28T16:21:39.268Z,78.17
2022-09-28T16:24:23.347Z,78.02
2022-09-28T16:26:58.604Z,78.24
2022-09-28T16:29:39.413Z,78.11
2022-09-28T16:32:41.653Z,78.40
2022-09-28T16:35:21.700Z,78.17
2022-09-28T16:38:03.716Z,78.40
2022-09-28T16:40:39.992Z,78.19
2022-09-28T16:43:19.471Z,78.34
2022-09-28T16:45:52.537Z,78.13
2022-09-28T16:48:26.961Z,78.12
2022-09-28T16:50:59.980Z,78.28
2022-09-28T16:53:51.216Z,78.47
2022-09-28T16:56:27.660Z,78.71
2022-09-28T16:59:02.367Z,78.39
2022-09-28T17:01:42.245Z,78.54
2022-09-28T17:04:15.105Z,78.61
2022-09-28T17:06:48.225Z,78.45
2022-09-28T17:09:21.588Z,78.67
2022-09-28T17:11:57.820Z,79.06
2022-09-28T17:14:33.100Z,79.10
2022-09-28T17:17:10.605Z,78.64
2022-09-28T17:19:47.437Z,78.99
2022-09-28T17:22:20.313Z,78.92
2022-09-28T17:24:53.182Z,78.70
2022-09-28T17:27:27.727Z,78.84
2022-09-28T17:30:01.938Z,79.28
2022-09-28T17:32:37.559Z,79.22
2022-09-28T17:35:24.306Z,79.55
2022-09-28T17:37:59.218Z,79.34
2022-09-28T17:40:33.127Z,78.98
2022-09-28T17:43:07.937Z,79.02
2022-09-28T17:45:41.285Z,79.22
2022-09-28T17:48:19.206Z,79.54
2022-09-28T17:50:52.218Z,79.58
2022-09-28T17:53:25.552Z,79.04
2022-09-28T17:55:58.368Z,79.05
2022-09-28T17:58:33.148Z,79.11
2022-09-28T18:01:06.448Z,79.49
2022-09-28T18:03:39.585Z,79.27
2022-09-28T18:06:15.323Z,79.37
2022-09-28T18:08:48.851Z,79.33
2022-09-28T18:11:22.725Z,79.35
2022-09-28T18:13:56.905Z,79.37
2022-09-28T18:16:29.505Z,79.15
2022-09-28T18:19:02.372Z,79.49
2022-09-28T18:21:35.189Z,79.30
2022-09-28T18:24:07.869Z,79.36
2022-09-28T18:26:40.682Z,79.03
2022-09-28T18:29:17.113Z,79.07
2022-09-28T18:31:50.220Z,78.91
2022-09-28T18:34:23.081Z,79.31
2022-09-28T18:36:55.721Z,79.40
2022-09-28T18:39:30.873Z,79.54
2022-09-28T18:42:04.500Z,79.75
2022-09-28T18:44:39.389Z,79.60
2022-09-28T18:47:17.867Z,79.69
2022-09-28T18:49:53.968Z,79.17
2022-09-28T18:52:26.813Z,79.72
2022-09-28T18:54:59.559Z,79.56
2022-09-28T18:57:33.999Z,79.58
2022-09-28T19:00:11.694Z,79.69
2022-09-28T19:02:44.632Z,79.59
2022-09-28T19:05:17.896Z,79.62
2022-09-28T19:07:50.330Z,79.67
2022-09-28T19:10:23.272Z,79.41
2022-09-28T19:12:55.799Z,80.00
2022-09-28T19:15:29.692Z,79.51
2022-09-28T19:18:02.620Z,79.87
2022-09-28T19:20:35.506Z,79.76
2022-09-28T19:23:08.110Z,79.56
2022-09-28T19:25:41.322Z,79.83
2022-09-28T19:28:13.772Z,79.99
2022-09-28T19:30:56.431Z,79.97
2022-09-28T19:33:29.655Z,79.69
2022-09-28T19:36:04.505Z,79.77
2022-09-28T19:38:38.967Z,79.86
2022-09-28T19:41:14.930Z,79.99
2022-09-28T19:43:48.019Z,79.58
2022-09-28T19:46:22.612Z,80.11
2022-09-28T19:48:56.646Z,79.71
2022-09-28T19:51:29.224Z,79.61
2022-09-28T19:54:05.893Z,79.83
2022-09-28T19:56:38.303Z,79.90
2022-09-28T19:59:12.282Z,79.99
2022-09-28T20:01:46.767Z,79.80
2022-09-28T20:04:21.199Z,80.00
2022-09-28T20:06:54.046Z,79.90
2022-09-28T20:09:29.722Z,80.20
2022-09-28T20:12:02.321Z,79.97
2022-09-28T20:14:38.197Z,80.27
2022-09-28T20:17:14.170Z,80.11
2022-09-28T20:19:47.172Z,79.99
2022-09-28T20:22:20.242Z,80.38
2022-09-28T20:24:53.275Z,80.11
2022-09-28T20:27:27.184Z,80.33
2022-09-28T20:30:00.099Z,80.06
2022-09-28T20:32:35.498Z,80.15
2022-09-28T20:35:08.886Z,80.02
2022-09-28T20:37:42.186Z,80.20
2022-09-28T20:40:14.652Z,80.46
2022-09-28T20:42:47.317Z,80.48
2022-09-28T20:45:20.071Z,80.59
2022-09-28T20:47:53.892Z,80.56
2022-09-28T20:50:28.169Z,80.57
2022-09-28T20:53:00.882Z,80.49
2022-09-28T20:55:33.374Z,79.87
2022-09-28T20:58:05.772Z,80.60
2022-09-28T21:00:38.145Z,80.46
2022-09-28T21:03:12.176Z,80.23
2022-09-28T21:05:45.321Z,80.23
2022-09-28T21:08:17.763Z,80.41
2022-09-28T21:10:52.982Z,80.43
2022-09-28T21:13:26.547Z,80.50
2022-09-28T21:16:02.011Z,80.48
2022-09-28T21:18:35.941Z,80.48
2022-09-28T21:21:09.949Z,80.61
2022-09-28T21:23:45.424Z,80.79
2022-09-28T21:26:25.053Z,80.73
2022-09-28T21:28:59.496Z,80.70
2022-09-28T21:31:37.001Z,80.48
2022-09-28T21:34:13.539Z,80.53
2022-09-28T21:36:47.015Z,80.92
2022-09-28T21:39:20.494Z,80.75
2022-09-28T21:41:52.852Z,80.78
2022-09-28T21:44:25.452Z,80.64
2022-09-28T21:46:57.843Z,80.72
2022-09-28T21:49:31.698Z,80.85
2022-09-28T21:52:04.086Z,80.70
2022-09-28T21:54:37.516Z,80.96
2022-09-28T21:57:10.679Z,80.83
2022-09-28T21:59:43.306Z,80.87
2022-09-28T22:02:15.702Z,80.77
2022-09-28T22:04:49.718Z,80.71
2022-09-28T22:07:22.201Z,80.96
2022-09-28T22:09:54.716Z,80.82
2022-09-28T22:12:29.306Z,80.95
2022-09-28T22:15:02.127Z,80.95
2022-09-28T22:17:35.525Z,81.03
2022-09-28T22:20:09.785Z,81.09
2022-09-28T22:22:42.164Z,81.06
2022-09-28T22:25:14.806Z,80.97
2022-09-28T22:27:47.340Z,80.86
2022-09-28T22:30:20.082Z,81.22
2022-09-28T22:32:52.709Z,80.65
2022-09-28T22:35:26.903Z,81.11
2022-09-28T22:38:00.028Z,81.26
2022-09-28T22:40:32.502Z,81.07
2022-09-28T22:43:04.858Z,80.81
2022-09-28T22:45:37.476Z,81.07
2022-09-28T22:48:10.264Z,81.11
2022-09-28T22:50:50.604Z,80.95
2022-09-28T22:53:23.353Z,81.31
2022-09-28T22:55:56.499Z,81.20
2022-09-28T22:58:29.053Z,80.95
2022-09-28T23:01:06.445Z,80.72
2022-09-28T23:03:42.686Z,81.01
2022-09-28T23:06:18.582Z,81.20
2022-09-28T23:08:52.036Z,81.11
2022-09-28T23:11:24.582Z,81.36
2022-09-28T23:13:59.168Z,81.42
2022-09-28T23:16:31.756Z,80.88
2022-09-28T23:19:04.415Z,80.86
2022-09-28T23:21:38.701Z,80.88
2022-09-28T23:24:11.393Z,81.05
2022-09-28T23:26:43.951Z,80.87
2022-09-28T23:29:16.539Z,81.19
2022-09-28T23:31:48.956Z,81.06
2022-09-28T23:34:21.353Z,81.26
2022-09-28T23:36:56.105Z,80.72
2022-09-28T23:39:28.725Z,81.12
2022-09-28T23:42:01.419Z,80.82
2022-09-28T23:44:33.775Z,81.05
2022-09-28T23:47:06.372Z,81.40
2022-09-28T23:49:38.834Z,81.17
2022-09-28T23:52:12.673Z,80.96
2022-09-28T23:54:45.127Z,81.52
2022-09-28T23:57:17.773Z,81.32
2022-09-28T23:59:50.172Z,81.45
